createdAt,value
2017-11-19T00:00:16.200Z,7.52
2017-11-19T00:02:43.588Z,7.51
2017-11-19T00:05:10.989Z,7.50
2017-11-19T00:07:38.444Z,7.51
2017-11-19T00:10:05.841Z,7.55
2017-11-19T00:12:33.227Z,7.58
2017-11-19T00:15:00.628Z,7.54
2017-11-19T00:17:28.021Z,7.48
2017-11-19T00:19:55.412Z,7.48
2017-11-19T00:22:22.799Z,7.47
2017-11-19T00:24:50.203Z,7.46
2017-11-19T00:27:17.595Z,7.49
2017-11-19T00:29:44.983Z,7.54
2017-11-19T00:32:12.383Z,7.61
2017-11-19T00:34:39.784Z,7.53
2017-11-19T00:37:07.174Z,7.49
2017-11-19T00:39:34.572Z,7.47
2017-11-19T00:42:01.976Z,7.49
2017-11-19T00:44:29.379Z,7.45
2017-11-19T00:46:56.772Z,7.46
2017-11-19T00:49:24.168Z,7.49
2017-11-19T00:51:51.555Z,7.44
2017-11-19T00:54:18.957Z,7.43
2017-11-19T00:56:46.340Z,7.43
2017-11-19T00:59:13.783Z,7.42
2017-11-19T01:01:41.180Z,7.37
2017-11-19T01:04:08.596Z,7.41
2017-11-19T01:06:35.997Z,7.31
2017-11-19T01:09:03.385Z,7.27
2017-11-19T01:11:30.783Z,7.16
2017-11-19T01:13:58.193Z,7.07
2017-11-19T01:16:25.589Z,7.07
2017-11-19T01:18:52.980Z,6.98
2017-11-19T01:21:20.387Z,7.03
2017-11-19T01:23:47.767Z,7.10
2017-11-19T01:26:15.167Z,7.05
2017-11-19T01:28:42.563Z,7.03
2017-11-19T01:31:09.961Z,7.07
2017-11-19T01:33:37.353Z,7.03
2017-11-19T01:36:04.748Z,7.07
2017-11-19T01:38:32.143Z,6.93
2017-11-19T01:40:59.531Z,6.99
2017-11-19T01:43:26.923Z,7.02
2017-11-19T01:45:54.320Z,7.01
2017-11-19T01:48:21.724Z,7.05
2017-11-19T01:50:49.119Z,7.08
2017-11-19T01:53:16.508Z,6.92
2017-11-19T01:55:43.905Z,6.73
2017-11-19T01:58:11.292Z,6.62
2017-11-19T02:00:38.689Z,6.69
2017-11-19T02:03:06.075Z,6.72
2017-11-19T02:05:33.485Z,6.70
2017-11-19T02:08:00.880Z,6.63
2017-11-19T02:10:28.270Z,6.59
2017-11-19T02:12:55.667Z,6.64
2017-11-19T02:15:23.051Z,6.56
2017-11-19T02:17:50.457Z,6.61
2017-11-19T02:20:17.839Z,6.65
2017-11-19T02:22:45.240Z,6.65
2017-11-19T02:25:12.631Z,6.71
2017-11-19T02:27:40.035Z,6.69
2017-11-19T02:30:07.454Z,6.67
2017-11-19T02:32:34.816Z,6.66
2017-11-19T02:35:02.219Z,6.57
2017-11-19T02:37:29.619Z,6.65
2017-11-19T02:39:57.008Z,6.64
2017-11-19T02:42:24.407Z,6.68
2017-11-19T02:44:51.800Z,6.69
2017-11-19T02:47:19.196Z,6.71
2017-11-19T02:49:46.599Z,6.71
2017-11-19T02:52:13.992Z,6.71
2017-11-19T02:54:41.380Z,6.69
2017-11-19T02:57:08.787Z,6.66
2017-11-19T02:59:36.179Z,6.60
2017-11-19T03:02:03.576Z,6.66
2017-11-19T03:04:30.979Z,6.63
2017-11-19T03:06:58.384Z,6.52
2017-11-19T03:09:25.779Z,6.53
2017-11-19T03:11:53.184Z,6.59
2017-11-19T03:14:20.604Z,6.61
2017-11-19T03:16:48.000Z,6.60
2017-11-19T03:19:15.396Z,6.58
2017-11-19T03:21:43.120Z,6.61
2017-11-19T03:24:10.507Z,6.53
2017-11-19T03:26:37.903Z,6.42
2017-11-19T03:29:05.307Z,6.38
2017-11-19T03:31:33.159Z,6.29
2017-11-19T03:34:00.548Z,6.19
2017-11-19T03:36:27.973Z,6.11
2017-11-19T03:38:55.360Z,6.07
2017-11-19T03:41:22.753Z,6.02
2017-11-19T03:43:50.160Z,5.99
2017-11-19T03:46:17.552Z,5.90
2017-11-19T03:48:44.951Z,5.86
2017-11-19T03:51:12.385Z,5.85
2017-11-19T03:53:39.788Z,5.84
2017-11-19T03:56:07.187Z,5.80
2017-11-19T03:58:34.590Z,5.73
2017-11-19T04:01:01.989Z,5.72
2017-11-19T04:03:29.381Z,5.74
2017-11-19T04:05:56.785Z,5.75
2017-11-19T04:08:24.172Z,5.77
2017-11-19T04:10:51.576Z,5.75
2017-11-19T04:13:18.991Z,5.62
2017-11-19T04:15:46.382Z,5.62
2017-11-19T04:18:13.772Z,5.60
2017-11-19T04:20:41.208Z,5.57
2017-11-19T04:23:08.594Z,5.50
2017-11-19T04:25:36.011Z,5.55
2017-11-19T04:28:03.447Z,5.48
2017-11-19T04:30:30.856Z,5.43
2017-11-19T04:32:58.248Z,5.35
2017-11-19T04:35:25.667Z,5.24
2017-11-19T04:37:53.055Z,5.22
2017-11-19T04:40:20.460Z,5.20
2017-11-19T04:42:47.866Z,5.25
2017-11-19T04:45:15.254Z,5.25
2017-11-19T04:47:42.656Z,5.24
2017-11-19T04:50:10.063Z,5.27
2017-11-19T04:52:37.455Z,5.25
2017-11-19T04:55:04.842Z,5.29
2017-11-19T04:57:32.266Z,5.23
2017-11-19T04:59:59.656Z,5.22
2017-11-19T05:02:27.056Z,5.25
2017-11-19T05:04:54.471Z,5.21
2017-11-19T05:07:21.863Z,5.17
2017-11-19T05:09:49.269Z,5.17
2017-11-19T05:12:16.708Z,5.19
2017-11-19T05:14:44.109Z,5.17
2017-11-19T05:17:11.516Z,5.14
2017-11-19T05:19:38.928Z,5.15
2017-11-19T05:22:06.329Z,5.09
2017-11-19T05:24:33.737Z,5.13
2017-11-19T05:27:01.139Z,5.10
2017-11-19T05:29:28.539Z,5.16
2017-11-19T05:31:55.934Z,5.18
2017-11-19T05:34:23.348Z,5.18
2017-11-19T05:36:50.748Z,5.16
2017-11-19T05:39:18.149Z,5.18
2017-11-19T05:41:45.569Z,5.26
2017-11-19T05:44:12.972Z,5.32
2017-11-19T05:46:40.379Z,5.33
2017-11-19T05:49:07.804Z,5.40
2017-11-19T05:51:35.206Z,5.48
2017-11-19T05:54:02.607Z,5.50
2017-11-19T05:56:30.014Z,5.57
2017-11-19T05:58:57.407Z,5.60
2017-11-19T06:01:24.816Z,5.60
2017-11-19T06:03:52.232Z,5.65
2017-11-19T06:06:19.643Z,5.71
2017-11-19T06:08:47.044Z,5.69
2017-11-19T06:11:14.459Z,5.68
2017-11-19T06:13:41.870Z,5.74
2017-11-19T06:16:09.255Z,5.71
2017-11-19T06:18:36.660Z,5.78
2017-11-19T06:21:04.051Z,5.76
2017-11-19T06:23:31.450Z,5.78
2017-11-19T06:25:58.883Z,5.81
2017-11-19T06:28:26.279Z,5.77
2017-11-19T06:30:53.675Z,5.75
2017-11-19T06:33:21.080Z,5.80
2017-11-19T06:35:48.469Z,5.84
2017-11-19T06:38:15.868Z,5.83
2017-11-19T06:40:43.264Z,5.81
2017-11-19T06:43:10.682Z,5.83
2017-11-19T06:45:38.079Z,5.85
2017-11-19T06:48:05.503Z,5.85
2017-11-19T06:50:32.913Z,5.87
2017-11-19T06:53:00.361Z,5.94
2017-11-19T06:55:27.788Z,5.89
2017-11-19T06:57:55.189Z,5.88
2017-11-19T07:00:22.579Z,5.96
2017-11-19T07:02:49.979Z,5.95
2017-11-19T07:05:17.369Z,5.91
2017-11-19T07:07:44.764Z,5.99
2017-11-19T07:10:12.184Z,5.97
2017-11-19T07:12:39.589Z,5.97
2017-11-19T07:15:06.991Z,5.98
2017-11-19T07:17:34.527Z,5.96
2017-11-19T07:20:01.916Z,5.94
2017-11-19T07:22:29.313Z,6.00
2017-11-19T07:24:56.727Z,6.05
2017-11-19T07:27:24.117Z,6.04
2017-11-19T07:29:51.503Z,6.05
2017-11-19T07:32:18.913Z,6.09
2017-11-19T07:34:46.308Z,6.07
2017-11-19T07:37:13.702Z,6.13
2017-11-19T07:39:41.113Z,6.12
2017-11-19T07:42:09.167Z,6.10
2017-11-19T07:44:36.577Z,6.12
2017-11-19T07:47:03.976Z,6.13
2017-11-19T07:49:31.367Z,6.17
2017-11-19T07:51:58.756Z,6.18
2017-11-19T07:54:26.160Z,6.28
2017-11-19T07:56:53.553Z,6.33
2017-11-19T07:59:20.936Z,6.38
2017-11-19T08:01:48.336Z,6.42
2017-11-19T08:04:15.731Z,6.51
2017-11-19T08:06:43.124Z,6.45
2017-11-19T08:09:10.520Z,6.38
2017-11-19T08:11:37.919Z,6.49
2017-11-19T08:14:05.319Z,6.50
2017-11-19T08:16:32.719Z,6.61
2017-11-19T08:19:00.117Z,6.69
2017-11-19T08:21:27.505Z,6.63
2017-11-19T08:23:54.903Z,6.59
2017-11-19T08:26:22.299Z,6.60
2017-11-19T08:28:49.687Z,6.53
2017-11-19T08:31:17.095Z,6.49
2017-11-19T08:33:44.480Z,6.40
2017-11-19T08:36:11.871Z,6.40
2017-11-19T08:38:39.283Z,6.36
2017-11-19T08:41:06.656Z,6.39
2017-11-19T08:43:34.039Z,6.52
2017-11-19T08:46:01.439Z,6.71
2017-11-19T08:48:28.850Z,6.70
2017-11-19T08:50:56.233Z,6.71
2017-11-19T08:53:23.629Z,6.69
2017-11-19T08:55:51.009Z,6.63
2017-11-19T08:58:18.397Z,6.76
2017-11-19T09:00:45.791Z,6.81
2017-11-19T09:03:13.174Z,6.80
2017-11-19T09:05:40.568Z,6.84
2017-11-19T09:08:07.989Z,7.05
2017-11-19T09:10:35.440Z,7.25
2017-11-19T09:13:02.816Z,7.29
2017-11-19T09:15:30.219Z,7.31
2017-11-19T09:17:57.615Z,7.41
2017-11-19T09:20:25.007Z,7.60
2017-11-19T09:22:52.403Z,7.53
2017-11-19T09:25:19.791Z,7.75
2017-11-19T09:27:47.180Z,7.66
2017-11-19T09:30:14.603Z,7.65
2017-11-19T09:32:42.000Z,7.74
2017-11-19T09:35:09.412Z,7.80
2017-11-19T09:37:36.819Z,7.92
2017-11-19T09:40:04.212Z,8.05
2017-11-19T09:42:31.597Z,8.19
2017-11-19T09:44:58.992Z,8.44
2017-11-19T09:47:26.379Z,8.70
2017-11-19T09:49:53.776Z,8.89
2017-11-19T09:52:21.181Z,9.17
2017-11-19T09:54:48.563Z,9.05
2017-11-19T09:57:15.949Z,8.94
2017-11-19T09:59:43.348Z,8.86
2017-11-19T10:02:10.739Z,9.10
2017-11-19T10:04:38.140Z,9.33
2017-11-19T10:07:05.547Z,9.49
2017-11-19T10:09:32.936Z,9.42
2017-11-19T10:12:00.318Z,9.09
2017-11-19T10:14:27.736Z,8.94
2017-11-19T10:16:55.129Z,8.82
2017-11-19T10:19:22.595Z,8.97
2017-11-19T10:21:49.999Z,9.09
2017-11-19T10:24:17.387Z,9.42
2017-11-19T10:26:44.779Z,9.45
2017-11-19T10:29:12.212Z,9.42
2017-11-19T10:31:39.595Z,9.50
2017-11-19T10:34:06.987Z,9.27
2017-11-19T10:36:34.379Z,9.33
2017-11-19T10:39:01.777Z,9.54
2017-11-19T10:41:29.163Z,9.58
2017-11-19T10:43:56.583Z,9.50
2017-11-19T10:46:24.851Z,9.53
2017-11-19T10:48:52.243Z,9.44
2017-11-19T10:51:19.659Z,9.12
2017-11-19T10:53:47.043Z,8.95
2017-11-19T10:56:14.431Z,9.03
2017-11-19T10:58:41.836Z,9.04
2017-11-19T11:01:09.984Z,8.95
2017-11-19T11:03:37.375Z,9.11
2017-11-19T11:06:04.822Z,9.41
2017-11-19T11:08:32.207Z,9.67
2017-11-19T11:10:59.593Z,9.76
2017-11-19T11:13:27.091Z,9.73
2017-11-19T11:15:54.479Z,9.81
2017-11-19T11:18:22.911Z,9.67
2017-11-19T11:20:50.315Z,9.47
2017-11-19T11:23:17.703Z,9.41
2017-11-19T11:25:45.101Z,9.45
2017-11-19T11:28:12.649Z,9.25
2017-11-19T11:30:40.025Z,9.26
2017-11-19T11:33:07.532Z,9.36
2017-11-19T11:35:34.923Z,9.35
2017-11-19T11:38:02.303Z,9.41
2017-11-19T11:40:29.691Z,9.38
2017-11-19T11:42:57.090Z,9.41
2017-11-19T11:45:24.480Z,9.32
2017-11-19T11:47:51.871Z,9.39
2017-11-19T11:50:20.090Z,9.19
2017-11-19T11:52:47.479Z,9.07
2017-11-19T11:55:14.873Z,9.11
2017-11-19T11:57:42.292Z,9.27
2017-11-19T12:00:09.736Z,9.37
2017-11-19T12:02:37.124Z,9.47
2017-11-19T12:05:04.537Z,9.54
2017-11-19T12:07:31.925Z,9.54
2017-11-19T12:09:59.326Z,9.54
2017-11-19T12:12:26.729Z,9.49
2017-11-19T12:14:54.115Z,9.50
2017-11-19T12:17:23.524Z,9.61
2017-11-19T12:19:50.935Z,9.57
2017-11-19T12:22:18.320Z,9.58
2017-11-19T12:24:45.707Z,9.51
2017-11-19T12:27:13.113Z,9.60
2017-11-19T12:29:40.492Z,9.37
2017-11-19T12:32:07.889Z,9.36
2017-11-19T12:34:35.292Z,9.31
2017-11-19T12:37:02.681Z,9.40
2017-11-19T12:39:30.065Z,9.53
2017-11-19T12:41:57.459Z,9.52
2017-11-19T12:44:24.939Z,9.65
2017-11-19T12:46:52.337Z,9.62
2017-11-19T12:49:19.760Z,9.55
2017-11-19T12:51:47.156Z,9.37
2017-11-19T12:54:14.539Z,9.24
2017-11-19T12:56:41.964Z,9.16
2017-11-19T12:59:09.351Z,9.08
2017-11-19T13:01:36.748Z,9.04
2017-11-19T13:04:04.141Z,8.98
2017-11-19T13:06:31.532Z,8.83
2017-11-19T13:08:58.930Z,8.91
2017-11-19T13:11:26.351Z,8.84
2017-11-19T13:13:53.748Z,8.71
2017-11-19T13:16:21.136Z,8.75
2017-11-19T13:18:48.549Z,8.68
2017-11-19T13:21:15.941Z,8.65
2017-11-19T13:23:43.360Z,8.58
2017-11-19T13:26:10.744Z,8.48
2017-11-19T13:28:38.161Z,8.37
2017-11-19T13:31:05.543Z,8.34
2017-11-19T13:33:32.973Z,8.29
2017-11-19T13:36:00.360Z,8.27
2017-11-19T13:38:27.775Z,8.29
2017-11-19T13:40:55.224Z,8.29
2017-11-19T13:43:22.600Z,8.30
2017-11-19T13:45:49.996Z,8.43
2017-11-19T13:48:17.424Z,8.61
2017-11-19T13:50:44.820Z,8.66
2017-11-19T13:53:12.203Z,8.72
2017-11-19T13:55:39.607Z,8.78
2017-11-19T13:58:07.447Z,8.77
2017-11-19T14:00:34.827Z,8.84
2017-11-19T14:03:02.232Z,8.93
2017-11-19T14:05:29.622Z,8.94
2017-11-19T14:07:57.020Z,8.98
2017-11-19T14:10:24.423Z,9.08
2017-11-19T14:12:51.848Z,9.04
2017-11-19T14:15:19.229Z,8.97
2017-11-19T14:17:46.632Z,8.85
2017-11-19T14:20:14.015Z,8.89
2017-11-19T14:22:41.395Z,8.96
2017-11-19T14:25:08.792Z,8.92
2017-11-19T14:27:36.187Z,8.95
2017-11-19T14:30:03.572Z,9.00
2017-11-19T14:32:30.969Z,8.96
2017-11-19T14:34:58.360Z,8.95
2017-11-19T14:37:25.748Z,8.92
2017-11-19T14:39:53.148Z,8.93
2017-11-19T14:42:20.536Z,8.83
2017-11-19T14:44:47.912Z,8.84
2017-11-19T14:47:15.328Z,8.86
2017-11-19T14:49:42.716Z,8.88
2017-11-19T14:52:10.105Z,8.82
2017-11-19T14:54:37.504Z,8.78
2017-11-19T14:57:04.892Z,8.76
2017-11-19T14:59:32.281Z,8.73
2017-11-19T15:01:59.723Z,8.73
2017-11-19T15:04:27.174Z,8.69
2017-11-19T15:06:54.563Z,8.66
2017-11-19T15:09:22.847Z,8.65
2017-11-19T15:11:50.239Z,8.51
2017-11-19T15:14:17.626Z,8.35
2017-11-19T15:16:47.272Z,8.27
2017-11-19T15:19:14.660Z,8.26
2017-11-19T15:21:42.056Z,8.27
2017-11-19T15:24:09.463Z,8.30
2017-11-19T15:26:36.861Z,8.29
2017-11-19T15:29:04.297Z,8.19
2017-11-19T15:31:31.667Z,7.97
2017-11-19T15:33:59.115Z,7.88
2017-11-19T15:36:26.508Z,7.81
2017-11-19T15:38:53.916Z,7.82
2017-11-19T15:41:21.315Z,7.94
2017-11-19T15:43:48.703Z,7.98
2017-11-19T15:46:16.098Z,7.90
2017-11-19T15:48:43.491Z,7.86
2017-11-19T15:51:10.886Z,7.77
2017-11-19T15:53:38.312Z,7.59
2017-11-19T15:56:05.708Z,7.49
2017-11-19T15:58:34.531Z,7.44
2017-11-19T16:01:01.952Z,7.46
2017-11-19T16:03:29.352Z,7.49
2017-11-19T16:05:56.727Z,7.41
2017-11-19T16:08:24.131Z,7.47
2017-11-19T16:10:51.522Z,7.58
2017-11-19T16:13:18.914Z,7.63
2017-11-19T16:15:47.307Z,7.58
2017-11-19T16:18:14.708Z,7.56
2017-11-19T16:20:42.096Z,7.48
2017-11-19T16:23:09.523Z,7.46
2017-11-19T16:25:37.786Z,7.49
2017-11-19T16:28:05.195Z,7.51
2017-11-19T16:30:33.040Z,7.49
2017-11-19T16:33:00.428Z,7.44
2017-11-19T16:35:27.815Z,7.41
2017-11-19T16:37:55.917Z,7.41
2017-11-19T16:40:24.049Z,7.40
2017-11-19T16:42:51.440Z,7.35
2017-11-19T16:45:18.840Z,7.43
2017-11-19T16:47:46.298Z,7.44
2017-11-19T16:50:13.692Z,7.43
2017-11-19T16:52:41.112Z,7.39
2017-11-19T16:55:08.506Z,7.37
2017-11-19T16:57:35.896Z,7.40
2017-11-19T17:00:03.339Z,7.44
2017-11-19T17:02:31.927Z,7.43
2017-11-19T17:04:59.344Z,7.46
2017-11-19T17:07:26.769Z,7.47
2017-11-19T17:09:54.249Z,7.45
2017-11-19T17:12:21.673Z,7.48
2017-11-19T17:14:49.084Z,7.48
2017-11-19T17:17:16.471Z,7.49
2017-11-19T17:19:43.873Z,7.57
2017-11-19T17:22:11.340Z,7.50
2017-11-19T17:24:39.860Z,7.44
2017-11-19T17:27:14.379Z,7.47
2017-11-19T17:29:41.816Z,7.44
2017-11-19T17:32:09.213Z,7.51
2017-11-19T17:34:36.627Z,7.52
2017-11-19T17:37:04.055Z,7.52
2017-11-19T17:39:31.482Z,7.51
2017-11-19T17:41:58.876Z,7.52
2017-11-19T17:44:26.251Z,7.54
2017-11-19T17:46:53.698Z,7.51
2017-11-19T17:49:21.203Z,7.48
2017-11-19T17:51:48.597Z,7.48
2017-11-19T17:54:15.995Z,7.44
2017-11-19T17:56:43.412Z,7.40
2017-11-19T17:59:10.805Z,7.48
2017-11-19T18:01:38.199Z,7.46
2017-11-19T18:04:05.649Z,7.36
2017-11-19T18:06:33.052Z,7.33
2017-11-19T18:09:00.428Z,7.22
2017-11-19T18:11:28.054Z,7.00
2017-11-19T18:13:55.445Z,6.88
2017-11-19T18:16:28.591Z,6.79
2017-11-19T18:18:55.988Z,6.82
2017-11-19T18:21:23.373Z,6.81
2017-11-19T18:23:50.792Z,6.81
2017-11-19T18:26:18.187Z,6.78
2017-11-19T18:28:45.580Z,6.78
2017-11-19T18:31:12.979Z,6.76
2017-11-19T18:33:40.372Z,6.77
2017-11-19T18:36:07.762Z,6.75
2017-11-19T18:38:35.167Z,6.72
2017-11-19T18:41:02.560Z,6.66
2017-11-19T18:43:29.943Z,6.68
2017-11-19T18:45:57.346Z,6.69
2017-11-19T18:48:24.736Z,6.67
2017-11-19T18:50:52.124Z,6.66
2017-11-19T18:53:19.547Z,6.62
2017-11-19T18:55:46.940Z,6.64
2017-11-19T18:58:14.327Z,6.64
2017-11-19T19:00:41.732Z,6.56
2017-11-19T19:03:09.124Z,6.54
2017-11-19T19:05:36.513Z,6.57
2017-11-19T19:08:03.914Z,6.56
2017-11-19T19:10:31.314Z,6.57
2017-11-19T19:12:58.699Z,6.55
2017-11-19T19:15:26.100Z,6.56
2017-11-19T19:17:53.516Z,6.62
2017-11-19T19:20:20.959Z,6.70
2017-11-19T19:22:48.379Z,6.70
2017-11-19T19:25:15.771Z,6.69
2017-11-19T19:27:43.164Z,6.76
2017-11-19T19:30:10.587Z,6.77
2017-11-19T19:32:37.976Z,6.82
2017-11-19T19:35:05.368Z,6.79
2017-11-19T19:37:32.779Z,6.80
2017-11-19T19:40:00.168Z,6.78
2017-11-19T19:42:27.558Z,6.77
2017-11-19T19:45:02.160Z,6.83
2017-11-19T19:47:29.552Z,6.85
2017-11-19T19:49:56.943Z,6.89
2017-11-19T19:52:24.362Z,6.92
2017-11-19T19:55:05.111Z,6.94
2017-11-19T19:57:33.355Z,6.87
2017-11-19T20:00:00.747Z,6.86
2017-11-19T20:02:28.155Z,6.87
2017-11-19T20:04:55.569Z,6.85
2017-11-19T20:07:22.963Z,6.83
2017-11-19T20:09:50.384Z,6.75
2017-11-19T20:12:17.799Z,6.70
2017-11-19T20:14:45.211Z,6.73
2017-11-19T20:17:12.615Z,6.74
2017-11-19T20:19:40.028Z,6.74
2017-11-19T20:22:07.846Z,6.69
2017-11-19T20:24:35.258Z,6.73
2017-11-19T20:27:02.667Z,6.77
2017-11-19T20:29:30.068Z,6.76
2017-11-19T20:31:57.494Z,6.80
2017-11-19T20:34:24.977Z,6.85
2017-11-19T20:36:52.375Z,6.82
2017-11-19T20:39:19.772Z,6.87
2017-11-19T20:41:47.175Z,6.85
2017-11-19T20:44:14.572Z,6.86
2017-11-19T20:46:41.980Z,6.91
2017-11-19T20:49:09.391Z,6.86
2017-11-19T20:51:36.796Z,6.90
2017-11-19T20:54:04.198Z,6.97
2017-11-19T20:56:31.620Z,7.02
2017-11-19T20:58:59.011Z,7.06
2017-11-19T21:01:26.403Z,7.05
2017-11-19T21:03:53.824Z,7.06
2017-11-19T21:06:21.211Z,7.10
2017-11-19T21:08:48.608Z,7.18
2017-11-19T21:11:16.023Z,7.09
2017-11-19T21:13:43.416Z,7.07
2017-11-19T21:16:10.826Z,7.05
2017-11-19T21:18:38.236Z,6.99
2017-11-19T21:21:05.627Z,7.03
2017-11-19T21:23:33.019Z,7.01
2017-11-19T21:26:00.432Z,6.97
2017-11-19T21:28:27.815Z,6.98
2017-11-19T21:30:55.208Z,6.99
2017-11-19T21:33:22.607Z,6.96
2017-11-19T21:35:50.005Z,7.03
2017-11-19T21:38:17.391Z,7.03
2017-11-19T21:40:44.795Z,7.01
2017-11-19T21:43:12.186Z,6.99
2017-11-19T21:45:39.583Z,6.87
2017-11-19T21:48:06.987Z,6.93
2017-11-19T21:50:34.381Z,6.92
2017-11-19T21:53:01.767Z,7.01
2017-11-19T21:55:29.170Z,6.98
2017-11-19T21:57:56.556Z,6.97
2017-11-19T22:00:23.982Z,6.94
2017-11-19T22:02:51.399Z,6.91
2017-11-19T22:05:18.792Z,6.92
2017-11-19T22:07:46.192Z,6.89
2017-11-19T22:10:13.607Z,6.86
2017-11-19T22:12:41.003Z,6.86
2017-11-19T22:15:08.404Z,6.82
2017-11-19T22:17:35.803Z,6.84
2017-11-19T22:20:03.311Z,6.84
2017-11-19T22:22:30.691Z,6.85
2017-11-19T22:24:58.095Z,6.75
2017-11-19T22:27:25.501Z,6.83
2017-11-19T22:29:52.890Z,6.81
2017-11-19T22:32:20.324Z,6.85
2017-11-19T22:34:47.695Z,6.82
2017-11-19T22:37:15.093Z,6.89
2017-11-19T22:39:42.496Z,6.94
2017-11-19T22:42:09.891Z,6.85
2017-11-19T22:44:37.298Z,6.81
2017-11-19T22:47:04.724Z,6.70
2017-11-19T22:49:32.119Z,6.65
2017-11-19T22:51:59.524Z,6.54
2017-11-19T22:54:26.936Z,6.56
2017-11-19T22:56:54.331Z,6.66
2017-11-19T22:59:21.729Z,6.58
2017-11-19T23:01:49.152Z,6.60
2017-11-19T23:04:16.539Z,6.54
2017-11-19T23:06:43.927Z,6.50
2017-11-19T23:09:11.351Z,6.51
2017-11-19T23:11:38.749Z,6.51
2017-11-19T23:14:06.140Z,6.55
2017-11-19T23:16:33.564Z,6.55
2017-11-19T23:19:00.956Z,6.63
2017-11-19T23:21:28.340Z,6.71
2017-11-19T23:23:55.739Z,6.75
2017-11-19T23:26:23.135Z,6.72
2017-11-19T23:28:50.539Z,6.72
2017-11-19T23:31:17.941Z,6.72
2017-11-19T23:33:45.328Z,6.70
2017-11-19T23:36:12.719Z,6.68
2017-11-19T23:38:40.131Z,6.66
2017-11-19T23:41:07.527Z,6.66
2017-11-19T23:43:34.920Z,6.63
2017-11-19T23:46:02.325Z,6.59
2017-11-19T23:48:29.739Z,6.51
2017-11-19T23:50:57.124Z,6.53
2017-11-19T23:53:24.543Z,6.53
2017-11-19T23:55:51.948Z,6.50
2017-11-19T23:58:19.340Z,6.49
